Time;durP1;ratioP1;P1;durP2;ratioP2;P2;SDS_P1;SDS_P2;PMS_P1;PMS_P2;Temp;Humidity;BMP_temperature;BMP_pressure;BME280_temperature;BME280_humidity;BME280_pressure;Samples;Min_cycle;Max_cycle;Signal;HPM_P1;HPM_P2
2022/10/21 00:01:29;;;;;;;22.83;15.60;;;;;;;13.38;100.00;95369.50;4823520;29;20206;-85
2022/10/21 00:03:54;;;;;;;22.37;14.67;;;;;;;13.35;100.00;95372.47;4824558;29;20284;-85
2022/10/21 00:06:20;;;;;;;23.07;13.80;;;;;;;13.39;100.00;95373.72;4830913;29;20208;-85
2022/10/21 00:08:50;;;;;;;19.90;14.00;;;;;;;13.40;100.00;95376.16;4827447;29;20217;-87
2022/10/21 00:11:18;;;;;;;21.43;13.23;;;;;;;13.39;100.00;95390.19;4841348;29;20575;-85
2022/10/21 00:13:49;;;;;;;21.03;14.80;;;;;;;13.39;100.00;95394.59;4794446;29;20193;-85
2022/10/21 00:16:18;;;;;;;27.90;17.73;;;;;;;13.27;100.00;95397.56;4829198;29;20327;-86
2022/10/21 00:18:47;;;;;;;21.90;16.90;;;;;;;13.20;100.00;95386.19;4824637;29;20218;-85
2022/10/21 00:21:18;;;;;;;21.03;16.83;;;;;;;13.12;100.00;95380.97;4828352;29;20671;-86
2022/10/21 00:23:45;;;;;;;25.67;16.37;;;;;;;13.18;100.00;95375.09;4833983;29;20555;-85
2022/10/21 00:26:14;;;;;;;26.93;17.40;;;;;;;13.11;100.00;95389.75;4815743;29;20249;-85
2022/10/21 00:28:40;;;;;;;18.63;15.97;;;;;;;13.04;100.00;95386.19;4814041;29;20186;-85
2022/10/21 00:31:08;;;;;;;24.77;17.80;;;;;;;12.99;100.00;95380.69;4818175;29;20208;-85
2022/10/21 00:33:39;;;;;;;21.33;15.90;;;;;;;12.97;100.00;95372.19;4810061;29;20206;-85
2022/10/21 00:36:13;;;;;;;22.60;17.17;;;;;;;12.96;100.00;95367.97;4812855;29;20218;-85
2022/10/21 00:38:39;;;;;;;25.00;16.80;;;;;;;12.96;100.00;95367.97;4819953;29;20197;-87
2022/10/21 00:41:07;;;;;;;22.87;16.63;;;;;;;12.95;100.00;95355.91;4841962;29;20201;-85
2022/10/21 00:44:00;;;;;;;24.93;15.43;;;;;;;12.99;100.00;95362.44;4814044;29;20247;-85
2022/10/21 00:46:46;;;;;;;23.13;14.60;;;;;;;12.99;100.00;95365.03;4819441;29;20358;-86
2022/10/21 00:49:23;;;;;;;22.13;12.50;;;;;;;12.96;100.00;95363.56;4812080;29;20682;-85
2022/10/21 00:51:51;;;;;;;19.83;12.10;;;;;;;12.91;100.00;95365.06;4818255;29;20193;-84
2022/10/21 00:54:19;;;;;;;17.30;11.50;;;;;;;12.93;100.00;95368.31;4815375;29;20191;-84
2022/10/21 00:56:47;;;;;;;17.10;9.97;;;;;;;13.01;100.00;95370.91;4815040;29;20213;-85
2022/10/21 00:59:15;;;;;;;15.70;9.27;;;;;;;13.10;100.00;95380.31;4812914;29;20218;-86
2022/10/21 01:01:41;;;;;;;16.73;10.60;;;;;;;13.24;100.00;95390.06;4833940;29;20692;-85
2022/10/21 01:04:07;;;;;;;14.40;9.00;;;;;;;13.29;100.00;95390.41;4823328;29;20197;-85
2022/10/21 01:06:33;;;;;;;15.07;9.57;;;;;;;13.36;100.00;95387.94;4815998;29;20252;-86
2022/10/21 01:09:07;;;;;;;15.20;9.80;;;;;;;13.42;100.00;95376.00;4815953;29;20317;-85
2022/10/21 01:11:44;;;;;;;14.57;8.33;;;;;;;13.42;100.00;95368.97;4808034;29;20232;-85
2022/10/21 01:14:22;;;;;;;14.03;7.30;;;;;;;13.43;100.00;95344.56;4831617;29;20188;-85
2022/10/21 01:17:08;;;;;;;9.57;6.83;;;;;;;13.37;100.00;95350.44;4828885;29;20217;-85
2022/10/21 01:19:45;;;;;;;9.97;6.30;;;;;;;13.33;100.00;95339.50;4818806;29;20299;-86
2022/10/21 01:22:32;;;;;;;8.07;5.30;;;;;;;13.37;100.00;95341.81;4849404;29;20197;-85
2022/10/21 01:25:40;;;;;;;14.37;5.00;;;;;;;13.36;100.00;95335.78;4845255;29;20629;-86
2022/10/21 01:28:31;;;;;;;7.63;4.70;;;;;;;13.29;100.00;95332.22;4833907;29;20666;-86
2022/10/21 01:31:25;;;;;;;9.63;4.50;;;;;;;13.39;100.00;95321.56;4806931;29;20759;-85
2022/10/21 01:34:26;;;;;;;5.37;4.03;;;;;;;13.37;100.00;95315.72;4820507;29;20205;-86
2022/10/21 01:37:11;;;;;;;9.70;5.60;;;;;;;13.33;100.00;95310.00;4816378;29;20237;-86
2022/10/21 01:40:32;;;;;;;10.97;6.33;;;;;;;13.32;100.00;95304.00;4808380;29;20245;-87
2022/10/21 01:43:18;;;;;;;8.47;5.80;;;;;;;13.34;100.00;95298.63;4807552;29;20318;-86
2022/10/21 01:45:53;;;;;;;11.93;5.73;;;;;;;13.31;100.00;95296.34;4784459;29;20194;-86
2022/10/21 01:48:24;;;;;;;11.33;6.00;;;;;;;13.29;100.00;95299.13;4817169;29;20208;-85
2022/10/21 01:50:54;;;;;;;10.87;5.80;;;;;;;13.30;100.00;95299.94;4816167;29;20673;-85
2022/10/21 01:53:30;;;;;;;10.40;5.20;;;;;;;13.36;100.00;95303.66;4798952;29;20209;-85
2022/10/21 01:55:58;;;;;;;11.10;5.53;;;;;;;13.32;100.00;95301.38;4786949;29;20224;-85
2022/10/21 02:01:21;;;;;;;7.43;4.53;;;;;;;13.36;100.00;95280.19;4816241;29;20205;-85
2022/10/21 02:03:53;;;;;;;6.00;4.40;;;;;;;13.40;100.00;95286.69;4798294;29;20194;-86
2022/10/21 02:06:24;;;;;;;6.50;4.47;;;;;;;13.39;100.00;95287.66;4809419;29;20209;-85
2022/10/21 02:08:51;;;;;;;11.37;4.67;;;;;;;13.43;100.00;95286.31;4800082;29;20217;-86
2022/10/21 02:11:17;;;;;;;7.57;5.30;;;;;;;13.44;100.00;95282.75;4817200;29;20202;-86
2022/10/21 02:14:00;;;;;;;11.50;6.23;;;;;;;13.50;100.00;95279.44;4818619;29;20270;-86
2022/10/21 02:16:34;;;;;;;10.67;6.03;;;;;;;13.39;100.00;95270.22;4813685;29;20209;-85
2022/10/21 02:19:00;;;;;;;10.97;6.37;;;;;;;13.33;100.00;95266.50;4821285;29;20232;-86
2022/10/21 02:21:28;;;;;;;11.77;6.60;;;;;;;13.32;100.00;95261.44;4813017;29;20296;-87
2022/10/21 02:24:03;;;;;;;9.90;6.97;;;;;;;13.32;100.00;95253.63;4831186;29;20186;-85
2022/10/21 02:26:28;;;;;;;10.33;6.40;;;;;;;13.27;100.00;95245.53;4832369;29;20720;-86
2022/10/21 02:28:57;;;;;;;9.73;6.87;;;;;;;13.28;100.00;95241.94;4822018;29;20271;-86
2022/10/21 02:32:04;;;;;;;10.47;6.33;;;;;;;13.26;100.00;95233.47;4819114;29;20212;-85
2022/10/21 02:34:55;;;;;;;8.10;6.43;;;;;;;13.27;100.00;95232.47;4834290;29;20201;-85
2022/10/21 02:37:46;;;;;;;10.53;7.07;;;;;;;13.24;100.00;95230.19;4828444;29;20218;-85
2022/10/21 02:40:21;;;;;;;13.87;7.60;;;;;;;13.28;100.00;95223.69;4831126;29;20217;-86
2022/10/21 02:42:54;;;;;;;15.60;7.27;;;;;;;13.30;100.00;95232.94;4814281;29;20193;-86
2022/10/21 02:45:22;;;;;;;11.70;7.87;;;;;;;13.28;100.00;95221.06;4815330;29;20250;-85
2022/10/21 02:47:59;;;;;;;12.23;7.47;;;;;;;13.18;100.00;95223.88;4820221;29;20449;-85
2022/10/21 02:50:25;;;;;;;9.97;7.53;;;;;;;13.18;100.00;95216.03;4806602;29;20683;-86
2022/10/21 02:52:53;;;;;;;9.80;7.13;;;;;;;13.21;100.00;95204.47;4811645;29;20220;-87
2022/10/21 02:58:04;;;;;;;17.63;6.90;;;;;;;13.28;100.00;95200.22;4828997;29;20261;-86
2022/10/21 03:00:35;;;;;;;9.10;6.90;;;;;;;13.46;100.00;95192.91;4819338;29;20233;-86
2022/10/21 03:03:13;;;;;;;10.17;6.60;;;;;;;13.40;100.00;95191.00;4818148;29;20186;-86
2022/10/21 03:05:39;;;;;;;9.50;6.87;;;;;;;13.48;100.00;95190.13;4818082;29;20199;-86
2022/10/21 03:08:12;;;;;;;11.00;6.33;;;;;;;13.48;100.00;95185.72;4831687;29;20704;-86
2022/10/21 03:10:40;;;;;;;10.13;6.50;;;;;;;13.53;100.00;95187.81;4821525;29;20269;-85
2022/10/21 03:13:08;;;;;;;8.33;6.13;;;;;;;13.50;100.00;95188.94;4815177;29;20210;-85
2022/10/21 03:15:44;;;;;;;12.27;6.50;;;;;;;13.56;100.00;95180.44;4829018;29;20218;-86
2022/10/21 03:18:12;;;;;;;10.23;6.97;;;;;;;13.55;100.00;95178.00;4834125;29;20220;-86
2022/10/21 03:20:41;;;;;;;8.23;6.67;;;;;;;13.43;100.00;95174.16;4810435;29;20218;-86
2022/10/21 03:23:09;;;;;;;11.90;7.00;;;;;;;13.54;100.00;95179.00;4824233;29;20193;-85
2022/10/21 03:25:37;;;;;;;8.93;6.70;;;;;;;13.53;100.00;95180.81;4821426;29;20639;-85
2022/10/21 03:28:02;;;;;;;12.70;7.13;;;;;;;13.50;100.00;95182.94;4824603;29;20235;-85
2022/10/21 03:30:42;;;;;;;14.77;7.23;;;;;;;13.49;100.00;95181.31;4844637;29;20229;-86
2022/10/21 03:33:11;;;;;;;12.90;7.67;;;;;;;13.52;100.00;95183.59;4836163;29;20193;-86
2022/10/21 03:35:41;;;;;;;13.33;6.73;;;;;;;13.54;100.00;95173.78;4811691;29;20222;-85
2022/10/21 03:38:10;;;;;;;12.93;7.40;;;;;;;13.51;100.00;95176.72;4819047;29;20194;-85
2022/10/21 03:40:48;;;;;;;13.30;6.83;;;;;;;13.51;100.00;95180.13;4817183;29;20590;-87
2022/10/21 03:43:14;;;;;;;10.57;6.93;;;;;;;13.58;100.00;95191.50;4822382;29;20221;-87
2022/10/21 03:45:41;;;;;;;13.67;7.90;;;;;;;13.56;100.00;95177.03;4824764;29;20196;-86
2022/10/21 03:48:07;;;;;;;19.13;7.63;;;;;;;13.64;100.00;95189.19;4819121;29;20200;-86
2022/10/21 03:50:32;;;;;;;13.77;7.50;;;;;;;13.59;100.00;95189.72;4814551;29;20237;-85
2022/10/21 03:53:03;;;;;;;16.50;9.17;;;;;;;13.43;100.00;95192.44;4817426;29;20647;-85
2022/10/21 03:55:28;;;;;;;10.27;7.73;;;;;;;13.57;100.00;95183.88;4825165;29;20194;-85
2022/10/21 03:57:56;;;;;;;13.77;8.00;;;;;;;13.57;100.00;95181.25;4816800;29;20208;-86
2022/10/21 04:00:22;;;;;;;15.70;8.07;;;;;;;13.52;100.00;95181.78;4826277;29;20299;-85
2022/10/21 04:02:50;;;;;;;14.33;8.43;;;;;;;13.50;100.00;95182.94;4836795;29;20241;-87
2022/10/21 04:05:16;;;;;;;14.27;8.60;;;;;;;13.54;100.00;95165.97;4813234;29;20905;-86
2022/10/21 04:07:41;;;;;;;11.57;7.83;;;;;;;13.55;100.00;95168.38;4816380;29;20190;-85
2022/10/21 04:10:08;;;;;;;14.07;7.80;;;;;;;13.55;100.00;95164.97;4818789;29;20213;-86
2022/10/21 04:12:33;;;;;;;13.70;7.73;;;;;;;13.55;100.00;95157.16;4830815;29;20656;-85
2022/10/21 04:15:01;;;;;;;13.20;8.77;;;;;;;13.60;100.00;95141.75;4832145;29;20189;-86
2022/10/21 04:17:29;;;;;;;15.23;8.37;;;;;;;13.59;100.00;95147.97;4819552;29;20240;-87
2022/10/21 04:19:55;;;;;;;11.70;7.32;;;;;;;13.58;100.00;95151.56;4824994;29;20220;-86
2022/10/21 04:22:20;;;;;;;10.90;7.33;;;;;;;13.59;100.00;95147.97;4808731;29;20194;-82
2022/10/21 04:24:45;;;;;;;12.40;7.17;;;;;;;13.65;100.00;95149.88;4829232;29;20270;-85
2022/10/21 05:10:59;;;;;;;15.63;7.07;;;;;;;13.77;100.00;95126.78;5614974;23;20266;-84
2022/10/21 05:13:25;;;;;;;16.02;6.28;;;;;;;13.79;100.00;95124.81;4819386;29;20238;-84
2022/10/21 05:15:50;;;;;;;15.20;7.13;;;;;;;13.71;100.00;95119.69;4835416;29;20213;-85
2022/10/21 05:18:16;;;;;;;21.40;6.50;;;;;;;13.76;100.00;95130.38;4831905;29;20666;-84
2022/10/21 05:20:41;;;;;;;13.98;6.53;;;;;;;13.74;100.00;95122.72;4831438;29;20248;-84
2022/10/21 05:23:06;;;;;;;8.88;6.10;;;;;;;13.71;100.00;95123.09;4831793;29;20198;-84
2022/10/21 05:25:35;;;;;;;13.30;7.17;;;;;;;13.73;100.00;95117.69;4826800;29;20205;-85
2022/10/21 05:28:00;;;;;;;15.03;6.43;;;;;;;13.71;100.00;95120.47;4830616;29;20693;-86
2022/10/21 05:30:25;;;;;;;13.33;6.47;;;;;;;13.79;100.00;95112.59;4832067;29;20240;-85
2022/10/21 05:32:50;;;;;;;14.13;6.03;;;;;;;13.83;100.00;95113.84;4816478;29;20196;-85
2022/10/21 05:35:16;;;;;;;13.07;5.83;;;;;;;13.85;100.00;95108.44;4819244;29;20182;-85
2022/10/21 05:37:41;;;;;;;11.73;5.40;;;;;;;13.85;100.00;95111.03;4816540;29;20218;-85
2022/10/21 05:40:07;;;;;;;13.55;6.07;;;;;;;13.88;100.00;95106.28;4815543;29;20225;-85
2022/10/21 05:42:32;;;;;;;13.00;5.73;;;;;;;13.92;100.00;95098.09;4848138;29;20205;-85
2022/10/21 05:44:58;;;;;;;11.73;5.70;;;;;;;13.77;100.00;95106.72;4829206;29;20283;-85
2022/10/21 05:51:25;;;;;;;12.70;6.17;;;;;;;13.87;100.00;95099.47;4826909;29;20579;-87
2022/10/21 05:54:29;;;;;;;9.73;5.33;;;;;;;13.84;100.00;95104.19;4823775;29;20938;-87
2022/10/21 06:00:09;;;;;;;10.40;6.03;;;;;;;13.81;100.00;95099.34;4830536;29;20383;-86
2022/10/21 06:02:39;;;;;;;10.53;5.70;;;;;;;13.88;100.00;95098.47;4828492;29;20647;-86
2022/10/21 06:05:12;;;;;;;17.57;6.47;;;;;;;13.80;100.00;95095.94;4835221;29;20220;-84
2022/10/21 06:08:07;;;;;;;15.50;5.20;;;;;;;13.84;100.00;95096.38;4834771;29;20205;-86
2022/10/21 06:10:36;;;;;;;12.57;5.83;;;;;;;13.84;100.00;95089.34;4821576;29;20224;-86
2022/10/21 06:13:13;;;;;;;13.13;6.07;;;;;;;13.78;100.00;95091.84;4807912;29;20201;-86
2022/10/21 06:15:41;;;;;;;10.60;5.50;;;;;;;13.75;100.00;95098.25;4812053;29;20202;-86
2022/10/21 06:18:23;;;;;;;14.77;5.70;;;;;;;13.83;100.00;95111.22;4820439;29;20209;-85
2022/10/21 06:24:17;;;;;;;10.40;5.77;;;;;;;13.90;100.00;95111.34;4804762;29;20219;-84
2022/10/21 06:26:54;;;;;;;12.40;5.10;;;;;;;13.94;100.00;95090.88;4830138;29;20854;-85
2022/10/21 06:29:28;;;;;;;11.10;5.43;;;;;;;14.03;100.00;95095.03;4811582;29;20637;-85
2022/10/21 06:31:53;;;;;;;13.13;5.00;;;;;;;14.02;100.00;95102.06;4814408;29;20188;-84
2022/10/21 06:34:18;;;;;;;12.07;5.13;;;;;;;13.98;100.00;95108.63;4832663;29;20286;-83
2022/10/21 06:36:44;;;;;;;8.98;4.78;;;;;;;14.05;100.00;95124.41;4815003;29;20229;-86
2022/10/21 06:39:14;;;;;;;12.02;5.22;;;;;;;13.95;100.00;95165.59;4816431;29;20228;-86
2022/10/21 06:41:39;;;;;;;12.23;5.00;;;;;;;13.80;100.00;95179.44;4813901;29;20177;-82
2022/10/21 06:44:05;;;;;;;14.67;6.63;;;;;;;13.73;100.00;95164.66;4827445;29;20192;-85
2022/10/21 07:07:29;;;;;;;11.83;3.90;;;;;;;14.02;100.00;95124.75;5182137;23;20248;-85
2022/10/21 07:09:56;;;;;;;7.47;3.80;;;;;;;14.11;100.00;95131.50;4843137;29;20659;-85
2022/10/21 07:12:22;;;;;;;11.53;5.60;;;;;;;14.18;100.00;95127.19;4843417;29;20280;-85
2022/10/21 07:14:48;;;;;;;24.50;13.83;;;;;;;14.25;100.00;95130.72;4828058;29;20213;-85
2022/10/21 07:17:14;;;;;;;12.73;8.47;;;;;;;14.16;100.00;95134.41;4842923;29;20212;-87
2022/10/21 07:19:39;;;;;;;15.70;6.73;;;;;;;14.13;100.00;95138.19;4827222;29;20232;-85
2022/10/21 07:22:04;;;;;;;10.57;5.50;;;;;;;14.11;100.00;95141.94;4832036;29;20285;-85
2022/10/21 07:24:31;;;;;;;9.80;4.90;;;;;;;14.02;100.00;95166.50;4828160;29;20197;-85
2022/10/21 07:27:01;;;;;;;9.57;5.22;;;;;;;13.99;100.00;95167.69;4841383;29;20226;-85
2022/10/21 07:29:57;;;;;;;9.30;5.47;;;;;;;13.79;100.00;95167.38;4843562;29;20225;-88
2022/10/21 07:32:27;;;;;;;11.53;8.03;;;;;;;13.84;100.00;95165.03;4858755;29;20201;-88
2022/10/21 07:35:11;;;;;;;;;;;;;;;;;;;;;
2022/10/21 07:37:52;;;;;;;;;;;;;;;;;;;;;
2022/10/21 07:40:25;;;;;;;12.55;6.90;;;;;;;14.16;100.00;95160.50;4846175;29;20821;-86
2022/10/21 07:42:55;;;;;;;10.23;6.13;;;;;;;14.13;100.00;95153.84;4847786;29;20189;-87
2022/10/21 07:45:21;;;;;;;15.57;6.35;;;;;;;14.11;100.00;95155.00;4829037;29;20213;-87
2022/10/21 07:47:47;;;;;;;12.27;5.67;;;;;;;14.22;100.00;95145.91;4844396;29;20189;-86
2022/10/21 07:50:13;;;;;;;9.45;6.13;;;;;;;14.31;100.00;95150.06;4837035;29;20538;-87
2022/10/21 07:52:44;;;;;;;8.70;6.65;;;;;;;14.34;100.00;95145.31;4839755;29;20214;-84
2022/10/21 07:55:14;;;;;;;9.87;5.50;;;;;;;14.14;100.00;95141.59;4825808;29;20681;-87
2022/10/21 07:57:40;;;;;;;13.23;4.97;;;;;;;14.21;100.00;95145.09;4843376;29;20220;-87
2022/10/21 08:00:07;;;;;;;10.17;4.97;;;;;;;14.17;100.00;95151.69;4841845;29;20300;-87
2022/10/21 08:02:32;;;;;;;11.65;4.32;;;;;;;14.17;100.00;95149.06;4834103;29;20238;-83
2022/10/21 08:04:57;;;;;;;11.80;5.37;;;;;;;14.27;100.00;95144.38;4840270;29;20221;-86
2022/10/21 08:07:26;;;;;;;11.63;4.77;;;;;;;14.28;100.00;95145.19;4841236;29;20193;-86
2022/10/21 08:09:56;;;;;;;7.38;4.18;;;;;;;14.21;100.00;95146.91;4821531;29;20266;-87
2022/10/21 08:12:21;;;;;;;7.68;4.43;;;;;;;14.29;100.00;95145.00;4842966;29;20587;-86
2022/10/21 08:14:47;;;;;;;9.18;4.55;;;;;;;14.28;100.00;95138.16;4827895;29;20193;-86
2022/10/21 08:17:12;;;;;;;12.23;5.40;;;;;;;14.27;100.00;95144.38;4827589;29;20201;-86
2022/10/21 08:19:37;;;;;;;9.82;4.43;;;;;;;14.27;100.00;95154.84;4842691;29;20694;-85
2022/10/21 08:22:03;;;;;;;10.25;4.40;;;;;;;14.17;100.00;95147.28;4828413;29;20209;-86
2022/10/21 08:24:28;;;;;;;8.35;4.35;;;;;;;14.24;100.00;95149.97;4825117;29;20189;-86
2022/10/21 08:26:54;;;;;;;7.15;4.63;;;;;;;14.27;100.00;95139.16;4827330;29;20195;-86
2022/10/21 08:29:20;;;;;;;10.90;4.60;;;;;;;14.35;100.00;95146.09;4843944;29;20209;-86
2022/10/21 08:31:48;;;;;;;8.10;3.90;;;;;;;14.22;100.00;95149.31;4826474;29;20273;-86
2022/10/21 08:34:13;;;;;;;8.90;4.22;;;;;;;14.27;100.00;95144.38;4839981;29;20185;-86
2022/10/21 08:36:39;;;;;;;9.75;3.58;;;;;;;14.28;100.00;95166.09;4827777;29;20216;-87
2022/10/21 08:39:06;;;;;;;8.45;4.22;;;;;;;14.23;100.00;95163.22;4842080;29;20265;-85
2022/10/21 08:41:40;;;;;;;9.18;3.97;;;;;;;14.32;100.00;95178.63;4822647;29;20193;-85
2022/10/21 08:44:11;;;;;;;15.45;4.50;;;;;;;14.34;100.00;95173.22;4839841;29;20204;-85
2022/10/21 08:46:42;;;;;;;7.53;3.80;;;;;;;14.28;100.00;95187.78;4842053;29;20181;-85
2022/10/21 08:49:15;;;;;;;9.10;5.03;;;;;;;14.10;100.00;95195.16;4840171;29;20256;-87
2022/10/21 08:51:43;;;;;;;11.82;5.40;;;;;;;14.28;100.00;95166.91;4835681;29;20192;-85
2022/10/21 08:54:18;;;;;;;12.38;4.68;;;;;;;14.26;100.00;95205.44;4835070;29;20557;-86
2022/10/21 08:56:46;;;;;;;6.60;3.67;;;;;;;14.14;100.00;95201.66;4827093;29;20208;-83
2022/10/21 08:59:22;;;;;;;8.82;4.90;;;;;;;14.05;100.00;95213.16;4840640;29;20218;-86
2022/10/21 09:01:57;;;;;;;10.00;4.17;;;;;;;14.32;100.00;95209.97;4819645;29;20680;-84
2022/10/21 09:04:59;;;;;;;8.40;4.90;;;;;;;14.33;100.00;95234.28;4844765;29;20206;-86
2022/10/21 09:07:32;;;;;;;12.20;7.03;;;;;;;14.24;100.00;95243.19;4839660;29;20822;-84
2022/10/21 09:10:09;;;;;;;12.80;7.90;;;;;;;14.24;100.00;95257.06;4841589;29;20248;-86
2022/10/21 09:13:04;;;;;;;8.13;4.90;;;;;;;14.12;100.00;95251.44;4835180;29;20225;-86
2022/10/21 09:16:00;;;;;;;5.70;3.67;;;;;;;14.12;100.00;95238.38;4845758;29;20209;-86
2022/10/21 09:18:46;;;;;;;5.13;1.90;;;;;;;13.91;100.00;95237.44;4837251;29;20201;-85
2022/10/21 09:21:22;;;;;;;3.35;2.00;;;;;;;14.19;100.00;95233.25;4836418;29;20272;-86
2022/10/21 09:24:10;;;;;;;4.33;2.30;;;;;;;14.47;100.00;95230.09;4825270;29;20197;-83
2022/10/21 09:26:40;;;;;;;4.97;2.60;;;;;;;14.58;100.00;95227.06;4842811;29;20174;-85
2022/10/21 09:29:28;;;;;;;4.87;2.77;;;;;;;14.66;100.00;95232.16;4848506;29;20285;-85
2022/10/21 09:32:11;;;;;;;7.27;3.27;;;;;;;14.73;100.00;95239.09;4841052;29;20189;-84
2022/10/21 09:34:59;;;;;;;5.30;3.27;;;;;;;14.84;100.00;95232.63;4831669;29;20244;-85
2022/10/21 09:37:43;;;;;;;6.27;2.87;;;;;;;14.94;100.00;95240.19;4839942;29;20221;-85
2022/10/21 09:40:15;;;;;;;7.03;3.28;;;;;;;15.01;100.00;95243.69;4839789;29;20201;-84
2022/10/21 09:42:41;;;;;;;7.53;3.23;;;;;;;15.20;100.00;95242.34;4842678;29;20185;-84
2022/10/21 09:45:18;;;;;;;8.70;2.90;;;;;;;15.38;100.00;95247.16;4844208;29;20193;-84
2022/10/21 09:47:52;;;;;;;4.93;2.93;;;;;;;15.55;100.00;95256.41;4815715;29;20650;-84
2022/10/21 09:50:17;;;;;;;7.22;3.22;;;;;;;15.57;100.00;95252.59;4826794;29;20208;-85
2022/10/21 09:52:45;;;;;;;5.68;2.90;;;;;;;15.69;100.00;95265.22;4828046;29;20184;-84
2022/10/21 09:55:13;;;;;;;6.03;2.92;;;;;;;15.65;100.00;95259.56;4842657;29;20277;-85
2022/10/21 09:57:48;;;;;;;4.78;3.33;;;;;;;15.66;100.00;95268.22;4836653;29;20213;-83
2022/10/21 10:00:13;;;;;;;6.88;3.00;;;;;;;15.52;100.00;95267.22;4822933;29;20719;-83
2022/10/21 10:02:42;;;;;;;4.38;2.72;;;;;;;15.68;100.00;95263.59;4834091;29;20189;-83
2022/10/21 10:05:32;;;;;;;5.45;2.67;;;;;;;15.76;100.00;95266.13;4829439;29;20272;-83
2022/10/21 10:07:57;;;;;;;7.97;3.50;;;;;;;15.73;100.00;95266.50;4830613;29;20217;-82
2022/10/21 10:10:31;;;;;;;6.95;3.40;;;;;;;15.52;100.00;95259.38;4828071;29;20220;-83
2022/10/21 10:12:57;;;;;;;4.20;2.70;;;;;;;15.66;100.00;95263.81;4823916;29;20621;-82
2022/10/21 10:15:31;;;;;;;7.60;2.80;;;;;;;15.56;100.00;95266.69;4833813;29;20303;-83
2022/10/21 10:17:56;;;;;;;6.72;3.05;;;;;;;15.73;100.00;95263.88;4813607;29;20198;-83
2022/10/21 10:20:22;;;;;;;7.70;3.30;;;;;;;15.80;100.00;95256.88;4826639;29;20328;-83
2022/10/21 10:23:08;;;;;;;4.40;3.10;;;;;;;15.89;100.00;95253.13;4819714;29;20189;-84
2022/10/21 10:25:36;;;;;;;3.63;2.83;;;;;;;16.00;100.00;95257.09;4833554;29;20189;-83
2022/10/21 10:28:07;;;;;;;5.22;2.10;;;;;;;15.92;100.00;95260.63;4816422;29;20190;-83
2022/10/21 10:30:42;;;;;;;4.57;2.10;;;;;;;15.97;100.00;95265.28;4834870;29;20687;-83
2022/10/21 10:33:09;;;;;;;2.70;1.67;;;;;;;16.14;100.00;95259.59;4833150;29;20272;-82
2022/10/21 10:35:35;;;;;;;4.55;1.67;;;;;;;16.23;100.00;95265.53;4823258;29;20248;-83
2022/10/21 10:38:01;;;;;;;3.15;1.70;;;;;;;15.99;100.00;95272.00;4821412;29;20227;-83
2022/10/21 10:40:38;;;;;;;4.00;1.92;;;;;;;16.32;100.00;95287.16;4830179;29;20245;-83
2022/10/21 10:43:22;;;;;;;2.28;1.52;;;;;;;16.09;100.00;95285.56;4827123;29;20200;-83
2022/10/21 10:45:54;;;;;;;3.25;1.60;;;;;;;16.18;100.00;95288.06;4860971;29;20170;-82
2022/10/21 10:48:43;;;;;;;2.97;1.70;;;;;;;16.28;100.00;95285.94;4866808;29;20177;-82
2022/10/21 10:51:33;;;;;;;3.47;1.95;;;;;;;16.49;100.00;95275.41;4848997;29;20196;-82
2022/10/21 10:54:26;;;;;;;2.78;1.23;;;;;;;16.80;100.00;95269.00;4861126;29;20185;-82
2022/10/21 10:57:10;;;;;;;4.47;2.40;;;;;;;16.59;98.92;95268.00;4855483;29;20243;-84
2022/10/21 10:59:44;;;;;;;1.98;1.55;;;;;;;16.52;98.64;95275.03;4844834;29;20217;-83
2022/10/21 11:02:10;;;;;;;1.67;1.15;;;;;;;16.55;99.63;95269.41;4844619;29;20180;-83
2022/10/21 11:04:40;;;;;;;2.60;1.05;;;;;;;16.45;98.90;95283.84;4841115;29;21013;-84
2022/10/21 11:07:24;;;;;;;3.22;1.15;;;;;;;16.26;99.48;95277.47;4835071;29;20288;-84
2022/10/21 11:09:51;;;;;;;2.95;1.30;;;;;;;16.39;98.61;95282.78;4844689;29;20702;-83
2022/10/21 11:12:23;;;;;;;3.10;1.20;;;;;;;16.48;99.92;95281.66;4842268;29;20650;-84
2022/10/21 11:14:53;;;;;;;4.20;1.25;;;;;;;16.70;99.43;95279.84;4828256;29;20217;-83
2022/10/21 11:17:20;;;;;;;2.60;1.50;;;;;;;16.49;98.64;95296.38;4843571;29;20228;-83
2022/10/21 11:19:56;;;;;;;1.92;1.10;;;;;;;16.60;99.93;95290.59;4842415;29;20253;-82
2022/10/21 11:23:02;;;;;;;2.15;1.10;;;;;;;16.39;97.35;95293.28;4840708;29;20284;-83
2022/10/21 11:25:41;;;;;;;2.10;0.95;;;;;;;16.31;97.61;95285.53;4823441;29;20196;-83
2022/10/21 11:28:26;;;;;;;1.63;0.80;;;;;;;16.73;97.50;95287.31;4851201;29;20205;-83
2022/10/21 11:31:05;;;;;;;3.47;0.80;;;;;;;16.55;96.52;95290.38;4839162;29;20186;-84
2022/10/21 11:33:34;;;;;;;2.15;1.00;;;;;;;16.56;95.85;95292.00;4840093;29;20189;-84
2022/10/21 11:36:07;;;;;;;1.40;0.82;;;;;;;16.75;95.05;95287.09;4840936;29;20213;-83
2022/10/21 11:39:01;;;;;;;1.25;1.00;;;;;;;16.84;95.10;95281.53;4833699;29;20201;-83
2022/10/21 11:42:00;;;;;;;4.82;1.00;;;;;;;16.96;93.93;95268.66;4841128;29;20216;-84
2022/10/21 11:45:15;;;;;;;0.80;0.80;;;;;;;16.96;93.58;95273.91;4833249;29;20197;-84
2022/10/21 11:47:58;;;;;;;4.20;1.02;;;;;;;16.82;95.42;95259.94;4832755;29;20212;-83
2022/10/21 11:50:41;;;;;;;3.05;1.30;;;;;;;16.51;94.39;95262.09;4843109;29;20209;-84
2022/10/21 11:53:20;;;;;;;7.97;1.42;;;;;;;16.31;95.03;95269.81;4835007;29;20193;-85
2022/10/21 11:56:16;;;;;;;5.60;1.25;;;;;;;16.48;95.35;95272.97;4833946;29;20189;-85
2022/10/21 11:58:59;;;;;;;3.08;1.00;;;;;;;16.30;95.97;95268.22;4845995;29;20310;-85
2022/10/21 12:01:36;;;;;;;7.15;1.58;;;;;;;16.25;96.81;95270.56;4845447;29;20254;-83
2022/10/21 12:04:32;;;;;;;4.38;1.33;;;;;;;16.34;95.86;95274.66;4840352;29;20186;-84
2022/10/21 12:07:19;;;;;;;2.72;0.90;;;;;;;16.11;96.62;95280.16;4826009;29;20257;-86
2022/10/21 12:09:52;;;;;;;2.10;0.90;;;;;;;16.28;95.87;95271.03;4843477;29;20220;-82
2022/10/21 12:12:38;;;;;;;1.17;1.08;;;;;;;16.29;94.68;95272.63;4832881;29;20198;-84
2022/10/21 12:15:13;;;;;;;3.13;1.23;;;;;;;16.28;95.64;95272.84;4843020;29;20249;-84
2022/10/21 12:17:39;;;;;;;4.93;0.95;;;;;;;16.21;95.10;95278.00;4819752;29;20212;-85
2022/10/21 12:20:12;;;;;;;2.03;0.80;;;;;;;16.03;96.14;95281.06;4842672;29;20209;-83
2022/10/21 12:22:38;;;;;;;2.15;0.98;;;;;;;16.29;93.08;95282.31;4842314;29;20615;-83
2022/10/21 12:25:19;;;;;;;3.58;1.23;;;;;;;15.96;95.05;95280.19;4831655;29;20202;-84
2022/10/21 12:27:50;;;;;;;3.83;1.40;;;;;;;16.31;94.37;95285.53;4837470;29;20213;-83
2022/10/21 12:30:19;;;;;;;3.28;1.20;;;;;;;16.23;95.72;95288.28;4837858;29;20303;-84
2022/10/21 12:33:03;;;;;;;2.67;1.10;;;;;;;16.25;95.73;95278.44;4838962;29;20277;-82
2022/10/21 12:35:52;;;;;;;1.70;1.10;;;;;;;16.28;96.29;95280.69;4841580;29;20210;-83
2022/10/21 12:38:27;;;;;;;5.03;1.05;;;;;;;16.34;96.98;95280.75;4831391;29;20199;-84
2022/10/21 12:41:27;;;;;;;2.92;1.10;;;;;;;16.35;96.96;95276.31;4842994;29;20212;-84
2022/10/21 12:43:59;;;;;;;1.77;1.20;;;;;;;16.40;96.22;95268.69;4775155;29;20207;-85
2022/10/21 12:46:28;;;;;;;1.65;1.15;;;;;;;16.52;96.34;95271.59;4784523;29;20318;-83
2022/10/21 12:48:54;;;;;;;2.35;1.08;;;;;;;16.54;96.15;95270.41;4800573;29;20222;-85
2022/10/21 12:51:25;;;;;;;3.40;1.30;;;;;;;16.37;97.10;95276.94;4772598;29;20214;-84
2022/10/21 12:54:02;;;;;;;3.53;1.20;;;;;;;16.24;96.41;95263.72;4786770;29;20211;-84
2022/10/21 12:56:34;;;;;;;2.15;1.10;;;;;;;16.02;96.47;95266.38;4784843;29;20263;-84
2022/10/21 12:59:03;;;;;;;2.10;1.10;;;;;;;16.28;96.68;95262.34;4786332;29;20237;-84
2022/10/21 13:01:39;;;;;;;2.85;1.30;;;;;;;16.15;96.74;95261.22;4782458;29;20194;-83
2022/10/21 13:04:43;;;;;;;2.28;1.50;;;;;;;16.03;97.39;95254.88;4774604;29;20194;-84
2022/10/21 13:07:08;;;;;;;4.68;1.88;;;;;;;16.21;94.81;95248.38;4777924;29;20210;-83
2022/10/21 13:09:37;;;;;;;2.92;1.10;;;;;;;16.14;96.31;95243.88;4784186;29;20222;-84
2022/10/21 13:12:13;;;;;;;3.10;0.95;;;;;;;16.15;96.51;95242.88;4780810;29;20217;-84
2022/10/21 13:14:43;;;;;;;2.78;1.08;;;;;;;16.35;95.51;95224.72;4786011;29;20182;-84